Portada
METAR-TAF:

METAR-TAF

Aeroports :

Hua Hin, Tailàndia

latitud: 12-35N, longitud: 099-57E, altitud: 5 m

Observació

L'informe es va fer fa 1 hora i 14 minuts, a les 23:00 UTC
Vent 3 kt del Nord/Nord-Oest, variant entre Oest/Nord-Oest i Nord
Temperatura 25°C
Humitat 83%
Pressió 1011 hPa
Visibilitat: 9000 m
Escasses núvols a una alçada de 2800 ft
Núvols disperses a una alçada de 10000 ft

METAR: VTPH 192300Z 34003KT 300V010 9000 FEW028 SCT100 25/22 Q1011 NOSIG

Hora: 07:14 (00:14 UTC)

Pronòstic

L'informe es va fer fa 1 hora i 14 minuts, a les 23:00 UTC
Pronòstic vàlid del 20 a les 00 UTC al 20 a les 24 UTC
Vent kt del Nord
Visibilitat: 8000 m
Escasses núvols a una alçada de 3000 ft
Evolucionant progressivament
l' 20 a les 01 UTC al 20 a les 03 UTC
Vent 5 kt del Nord-Est

TAF: VTPH 192300Z 2000/2024 00000KT 8000 FEW030 BECMG 2001/2003 04005KT

Observacions i pronòstics meteorològics de més de 4000 aeroports (METAR i TAF).

Les estacions disponibles són els punts grocs i vermells al mapa.

Posi el ratolí al punt desitjat per veure el nom de l'estació.

Feu clic per veure les observacions i els pronòstics meteorològics.

Per canviar el mapa: feu clic els botons verds amb una creu de color negre per apropar; al botó verd amb un guió per allunyar la imatge; o en les fletxes verdes per a mapes adjacents.


METAR-TAF: